createdAt,value
2022-12-31T00:00:53.542Z,7.29
2022-12-31T00:03:20.156Z,7.40
2022-12-31T00:05:52.413Z,7.46
2022-12-31T00:08:19.208Z,7.48
2022-12-31T00:10:45.756Z,7.56
2022-12-31T00:13:15.049Z,7.52
2022-12-31T00:15:44.946Z,7.60
2022-12-31T00:18:12.056Z,7.69
2022-12-31T00:20:39.510Z,7.63
2022-12-31T00:23:10.489Z,7.64
2022-12-31T00:25:37.893Z,7.73
2022-12-31T00:28:05.348Z,7.64
2022-12-31T00:30:42.728Z,7.66
2022-12-31T00:33:10.991Z,7.75
2022-12-31T00:35:40.733Z,7.71
2022-12-31T00:38:09.790Z,7.73
2022-12-31T00:40:36.769Z,7.63
2022-12-31T00:43:03.876Z,7.65
2022-12-31T00:45:33.127Z,7.64
2022-12-31T00:48:00.150Z,7.79
2022-12-31T00:50:29.986Z,7.84
2022-12-31T00:52:56.748Z,7.90
2022-12-31T00:55:26.250Z,8.03
2022-12-31T00:58:00.608Z,8.05
2022-12-31T01:00:27.588Z,8.14
2022-12-31T01:03:02.602Z,8.23
2022-12-31T01:05:33.891Z,8.33
2022-12-31T01:08:03.305Z,8.28
2022-12-31T01:10:48.880Z,8.33
2022-12-31T01:13:17.128Z,8.39
2022-12-31T01:15:49.465Z,8.53
2022-12-31T01:18:24.532Z,8.58
2022-12-31T01:20:54.225Z,8.81
2022-12-31T01:23:23.550Z,8.91
2022-12-31T01:25:54.954Z,8.82
2022-12-31T01:28:31.007Z,8.95
2022-12-31T01:30:58.262Z,9.00
2022-12-31T01:33:34.046Z,9.08
2022-12-31T01:36:05.688Z,9.07
2022-12-31T01:38:33.047Z,8.99
2022-12-31T01:40:59.612Z,9.08
2022-12-31T01:43:46.459Z,9.20
2022-12-31T01:46:14.556Z,9.37
2022-12-31T01:48:41.149Z,9.43
2022-12-31T01:51:17.611Z,9.41
2022-12-31T01:53:44.144Z,9.47
2022-12-31T01:56:11.556Z,9.45
2022-12-31T01:58:44.355Z,9.38
2022-12-31T02:01:13.949Z,9.42
2022-12-31T02:03:41.231Z,9.44
2022-12-31T02:06:10.765Z,9.44
2022-12-31T02:08:41.946Z,9.42
2022-12-31T02:11:29.256Z,9.38
2022-12-31T02:13:58.913Z,9.49
2022-12-31T02:16:46.320Z,9.60
2022-12-31T02:19:31.626Z,9.61
2022-12-31T02:22:21.113Z,9.53
2022-12-31T02:25:26.204Z,9.49
2022-12-31T02:28:11.723Z,9.48
2022-12-31T02:30:40.371Z,9.59
2022-12-31T02:33:18.450Z,9.54
2022-12-31T02:35:48.416Z,9.61
2022-12-31T02:38:36.633Z,9.59
2022-12-31T02:41:06.105Z,9.57
2022-12-31T02:43:35.553Z,9.46
2022-12-31T02:46:02.191Z,9.50
2022-12-31T02:48:47.191Z,9.47
2022-12-31T02:51:29.322Z,9.37
2022-12-31T02:54:25.926Z,9.30
2022-12-31T02:57:07.827Z,9.32
2022-12-31T02:59:57.701Z,9.32
2022-12-31T03:02:28.161Z,9.41
2022-12-31T03:04:55.996Z,9.54
2022-12-31T03:07:27.010Z,9.42
2022-12-31T03:09:53.956Z,9.41
2022-12-31T03:12:40.250Z,9.42
2022-12-31T03:15:19.876Z,9.39
2022-12-31T03:17:54.936Z,9.44
2022-12-31T03:20:41.414Z,9.53
2022-12-31T03:23:09.804Z,9.52
2022-12-31T03:25:37.879Z,9.45
2022-12-31T03:28:09.647Z,9.54
2022-12-31T03:30:37.130Z,9.54
2022-12-31T03:33:04.640Z,9.64
2022-12-31T03:35:32.179Z,9.59
2022-12-31T03:37:58.939Z,9.60
2022-12-31T03:40:26.919Z,9.71
2022-12-31T03:42:53.572Z,9.68
2022-12-31T03:45:20.741Z,9.73
2022-12-31T03:47:47.926Z,9.60
2022-12-31T03:50:15.560Z,9.66
2022-12-31T03:52:42.098Z,9.72
2022-12-31T03:55:09.569Z,9.69
2022-12-31T03:57:36.374Z,9.67
2022-12-31T04:00:04.566Z,9.69
2022-12-31T04:02:31.339Z,9.76
2022-12-31T04:04:58.165Z,9.84
2022-12-31T04:07:24.764Z,9.85
2022-12-31T04:09:51.304Z,9.86
2022-12-31T04:12:17.928Z,9.78
2022-12-31T04:14:44.670Z,9.75
2022-12-31T04:17:11.213Z,9.95
2022-12-31T04:19:40.400Z,10.00
2022-12-31T04:22:07.268Z,9.97
2022-12-31T04:24:33.924Z,9.95
2022-12-31T04:27:05.527Z,9.94
2022-12-31T04:29:34.550Z,9.98
2022-12-31T04:32:01.964Z,10.10
2022-12-31T04:34:28.672Z,10.10
2022-12-31T04:36:56.305Z,10.05
2022-12-31T04:39:22.973Z,10.16
2022-12-31T04:41:55.926Z,10.02
2022-12-31T04:44:22.471Z,10.02
2022-12-31T04:46:49.033Z,10.03
2022-12-31T04:49:18.727Z,10.08
2022-12-31T04:51:45.277Z,10.13
2022-12-31T04:54:16.710Z,10.16
2022-12-31T04:56:43.305Z,10.03
2022-12-31T04:59:10.425Z,10.07
2022-12-31T05:01:37.320Z,10.06
2022-12-31T05:04:09.476Z,10.12
2022-12-31T05:06:36.072Z,10.07
2022-12-31T05:09:02.572Z,10.15
2022-12-31T05:11:29.553Z,10.20
2022-12-31T05:13:56.050Z,10.28
2022-12-31T05:16:22.810Z,10.24
2022-12-31T05:18:49.373Z,10.32
2022-12-31T05:21:19.104Z,10.43
2022-12-31T05:23:45.596Z,10.47
2022-12-31T05:26:15.389Z,10.29
2022-12-31T05:28:41.927Z,10.23
2022-12-31T05:31:08.562Z,10.10
2022-12-31T05:33:38.054Z,10.00
2022-12-31T05:36:04.802Z,10.03
2022-12-31T05:38:31.323Z,9.96
2022-12-31T05:41:01.490Z,9.95
2022-12-31T05:43:28.382Z,9.90
2022-12-31T05:45:54.979Z,9.97
2022-12-31T05:48:21.556Z,9.92
2022-12-31T05:50:48.763Z,10.02
2022-12-31T05:53:15.390Z,10.05
2022-12-31T05:55:42.000Z,10.03
2022-12-31T05:58:08.598Z,9.97
2022-12-31T06:00:35.089Z,10.11
2022-12-31T06:03:01.838Z,10.15
2022-12-31T06:05:29.849Z,10.15
2022-12-31T06:07:56.529Z,10.29
2022-12-31T06:10:23.143Z,10.21
2022-12-31T06:12:49.790Z,10.31
2022-12-31T06:15:16.591Z,10.33
2022-12-31T06:17:43.167Z,10.34
2022-12-31T06:20:13.080Z,10.45
2022-12-31T06:22:40.187Z,10.47
2022-12-31T06:25:06.908Z,10.41
2022-12-31T06:27:33.406Z,10.47
2022-12-31T06:29:59.949Z,10.41
2022-12-31T06:32:26.533Z,10.48
2022-12-31T06:34:53.161Z,10.55
2022-12-31T06:37:19.678Z,10.63
2022-12-31T06:39:46.215Z,10.67
2022-12-31T06:42:14.230Z,10.64
2022-12-31T06:44:41.300Z,10.68
2022-12-31T06:47:08.044Z,10.91
2022-12-31T06:49:34.621Z,10.93
2022-12-31T06:52:01.293Z,11.09
2022-12-31T06:54:27.940Z,11.01
2022-12-31T06:56:54.856Z,11.09
2022-12-31T06:59:25.986Z,11.17
2022-12-31T07:01:52.516Z,11.31
2022-12-31T07:04:28.501Z,11.30
2022-12-31T07:07:01.688Z,11.39
2022-12-31T07:09:51.528Z,11.47
2022-12-31T07:12:39.582Z,11.71
2022-12-31T07:15:12.156Z,11.59
2022-12-31T07:17:47.833Z,11.67
2022-12-31T07:20:17.709Z,11.73
2022-12-31T07:22:45.414Z,11.61
2022-12-31T07:25:20.399Z,11.58
2022-12-31T07:27:59.634Z,11.83
2022-12-31T07:30:29.339Z,11.91
2022-12-31T07:32:59.943Z,11.87
2022-12-31T07:35:41.803Z,11.92
2022-12-31T07:38:15.599Z,11.96
2022-12-31T07:41:05.521Z,12.06
2022-12-31T07:43:41.253Z,12.08
2022-12-31T07:46:22.715Z,12.18
2022-12-31T07:48:49.501Z,12.31
2022-12-31T07:51:16.318Z,12.35
2022-12-31T07:53:43.064Z,12.42
2022-12-31T07:56:10.132Z,12.50
2022-12-31T07:58:42.772Z,12.61
2022-12-31T08:01:11.785Z,12.65
2022-12-31T08:03:55.039Z,12.78
2022-12-31T08:06:27.823Z,12.83
2022-12-31T08:09:16.856Z,12.84
2022-12-31T08:11:47.686Z,12.96
2022-12-31T08:14:14.987Z,12.95
2022-12-31T08:16:42.110Z,12.96
2022-12-31T08:19:16.779Z,12.98
2022-12-31T08:21:52.771Z,13.06
2022-12-31T08:24:35.328Z,13.07
2022-12-31T08:27:10.921Z,13.08
2022-12-31T08:29:45.905Z,13.10
2022-12-31T08:32:27.688Z,13.10
2022-12-31T08:35:14.137Z,13.34
2022-12-31T08:37:43.822Z,13.30
2022-12-31T08:40:18.864Z,13.31
2022-12-31T08:43:04.251Z,13.40
2022-12-31T08:45:43.475Z,13.39
2022-12-31T08:48:29.961Z,13.42
2022-12-31T08:50:57.040Z,13.55
2022-12-31T08:53:23.781Z,13.60
2022-12-31T08:55:54.015Z,13.72
2022-12-31T08:58:38.849Z,13.67
2022-12-31T09:01:06.622Z,13.55
2022-12-31T09:03:39.326Z,13.67
2022-12-31T09:06:24.610Z,13.72
2022-12-31T09:08:58.758Z,13.64
2022-12-31T09:11:31.092Z,13.73
2022-12-31T09:14:06.891Z,13.90
2022-12-31T09:16:40.596Z,13.79
2022-12-31T09:19:09.004Z,13.85
2022-12-31T09:21:37.746Z,14.12
2022-12-31T09:24:09.623Z,14.14
2022-12-31T09:26:43.467Z,14.43
2022-12-31T09:29:19.389Z,14.58
2022-12-31T09:31:51.664Z,14.82
2022-12-31T09:34:21.261Z,15.02
2022-12-31T09:36:53.880Z,15.40
2022-12-31T09:39:27.793Z,15.53
2022-12-31T09:42:06.064Z,15.46
2022-12-31T09:44:38.839Z,15.24
2022-12-31T09:47:05.445Z,15.55
2022-12-31T09:49:44.476Z,15.73
2022-12-31T09:52:27.104Z,15.61
2022-12-31T09:55:00.467Z,15.86
2022-12-31T09:57:27.096Z,15.74
2022-12-31T10:00:12.087Z,15.78
2022-12-31T10:02:48.037Z,15.77
2022-12-31T10:05:14.608Z,15.75
2022-12-31T10:07:41.203Z,15.64
2022-12-31T10:10:21.645Z,15.62
2022-12-31T10:12:54.246Z,15.67
2022-12-31T10:15:30.009Z,16.03
2022-12-31T10:18:00.518Z,15.97
2022-12-31T10:20:33.541Z,16.16
2022-12-31T10:23:19.081Z,16.20
2022-12-31T10:26:07.373Z,16.28
2022-12-31T10:28:46.277Z,16.19
2022-12-31T10:31:13.555Z,16.27
2022-12-31T10:34:02.510Z,16.25
2022-12-31T10:36:31.124Z,16.23
2022-12-31T10:39:10.734Z,16.33
2022-12-31T10:41:50.041Z,16.12
2022-12-31T10:44:34.849Z,16.09
2022-12-31T10:47:08.025Z,16.12
2022-12-31T10:49:38.223Z,16.02
2022-12-31T10:52:25.129Z,16.09
2022-12-31T10:55:05.416Z,16.10
2022-12-31T10:57:55.370Z,15.96
2022-12-31T11:00:27.387Z,16.02
2022-12-31T11:03:09.728Z,16.03
2022-12-31T11:05:48.576Z,15.97
2022-12-31T11:08:36.799Z,16.12
2022-12-31T11:11:22.265Z,15.98
2022-12-31T11:13:52.054Z,15.92
2022-12-31T11:16:27.854Z,15.82
2022-12-31T11:18:57.566Z,15.85
2022-12-31T11:21:28.282Z,15.94
2022-12-31T11:24:12.754Z,15.96
2022-12-31T11:26:57.641Z,15.91
2022-12-31T11:29:38.757Z,15.80
2022-12-31T11:32:11.448Z,15.94
2022-12-31T11:34:37.973Z,15.89
2022-12-31T11:37:23.089Z,16.07
2022-12-31T11:40:04.902Z,16.03
2022-12-31T11:42:41.145Z,16.13
2022-12-31T11:45:10.866Z,16.19
2022-12-31T11:48:28.392Z,16.13
2022-12-31T11:50:56.782Z,16.30
2022-12-31T11:53:31.065Z,16.57
2022-12-31T11:56:10.047Z,16.39
2022-12-31T11:58:36.908Z,16.72
2022-12-31T12:01:03.493Z,16.63
2022-12-31T12:03:30.704Z,16.63
2022-12-31T12:06:00.607Z,16.66
2022-12-31T12:08:30.385Z,16.72
2022-12-31T12:11:22.283Z,16.67
2022-12-31T12:13:48.835Z,16.77
2022-12-31T12:16:16.030Z,16.75
2022-12-31T12:18:46.787Z,16.67
2022-12-31T12:21:17.666Z,16.60
2022-12-31T12:23:57.949Z,16.53
2022-12-31T12:26:29.827Z,16.47
2022-12-31T12:28:59.703Z,16.55
2022-12-31T12:31:27.602Z,16.45
2022-12-31T12:33:54.220Z,16.45
2022-12-31T12:36:21.452Z,16.52
2022-12-31T12:38:48.134Z,16.46
2022-12-31T12:41:22.189Z,16.44
2022-12-31T12:43:48.672Z,16.35
2022-12-31T12:46:20.459Z,16.38
2022-12-31T12:48:47.946Z,16.32
2022-12-31T12:51:26.739Z,16.20
2022-12-31T12:53:53.350Z,16.30
2022-12-31T12:56:27.660Z,16.50
2022-12-31T12:58:54.239Z,16.51
2022-12-31T13:01:38.501Z,16.56
2022-12-31T13:04:33.990Z,16.55
2022-12-31T13:07:01.350Z,16.51
2022-12-31T13:09:34.298Z,16.54
2022-12-31T13:12:10.478Z,16.63
2022-12-31T13:14:52.416Z,16.56
2022-12-31T13:17:18.885Z,16.64
2022-12-31T13:19:48.415Z,16.61
2022-12-31T13:22:20.422Z,16.60
2022-12-31T13:25:04.045Z,16.56
2022-12-31T13:27:35.851Z,16.41
2022-12-31T13:30:04.046Z,16.31
2022-12-31T13:32:36.638Z,16.24
2022-12-31T13:35:07.135Z,16.45
2022-12-31T13:37:39.830Z,16.57
2022-12-31T13:40:25.628Z,16.53
2022-12-31T13:42:54.904Z,16.54
2022-12-31T13:45:24.873Z,16.57
2022-12-31T13:47:54.537Z,16.47
2022-12-31T13:50:33.373Z,16.62
2022-12-31T13:53:29.731Z,16.53
2022-12-31T13:56:02.163Z,16.56
2022-12-31T13:58:34.488Z,16.43
2022-12-31T14:01:01.092Z,16.44
2022-12-31T14:03:38.522Z,16.59
2022-12-31T14:06:13.850Z,16.50
2022-12-31T14:08:40.503Z,16.48
2022-12-31T14:11:14.726Z,16.61
2022-12-31T14:13:44.253Z,16.47
2022-12-31T14:16:19.668Z,16.61
2022-12-31T14:19:09.076Z,16.62
2022-12-31T14:21:35.578Z,16.49
2022-12-31T14:24:14.621Z,16.43
2022-12-31T14:26:44.345Z,16.47
2022-12-31T14:29:11.130Z,16.52
2022-12-31T14:31:56.706Z,16.66
2022-12-31T14:34:41.702Z,16.32
2022-12-31T14:37:14.086Z,16.42
2022-12-31T14:39:43.417Z,16.20
2022-12-31T14:42:22.148Z,16.16
2022-12-31T14:45:04.161Z,16.08
2022-12-31T14:47:36.049Z,16.01
2022-12-31T14:50:13.940Z,15.97
2022-12-31T14:53:15.967Z,15.82
2022-12-31T14:55:42.584Z,15.77
2022-12-31T14:58:28.138Z,15.79
2022-12-31T15:00:57.081Z,15.70
2022-12-31T15:03:27.822Z,15.71
2022-12-31T15:06:12.966Z,15.77
2022-12-31T15:09:07.676Z,15.68
2022-12-31T15:11:42.149Z,15.78
2022-12-31T15:14:26.541Z,15.67
2022-12-31T15:16:58.485Z,15.64
2022-12-31T15:19:37.579Z,15.64
2022-12-31T15:22:27.478Z,15.65
2022-12-31T15:24:54.147Z,15.53
2022-12-31T15:27:29.796Z,15.53
2022-12-31T15:29:56.469Z,15.50
2022-12-31T15:32:28.207Z,15.42
2022-12-31T15:35:13.254Z,15.43
2022-12-31T15:37:39.748Z,15.40
2022-12-31T15:40:32.416Z,15.36
2022-12-31T15:43:02.929Z,15.34
2022-12-31T15:45:33.291Z,15.44
2022-12-31T15:48:02.329Z,15.41
2022-12-31T15:50:32.187Z,15.64
2022-12-31T15:53:05.046Z,15.59
2022-12-31T15:55:34.349Z,15.59
2022-12-31T15:58:05.108Z,15.55
2022-12-31T16:00:43.605Z,15.44
2022-12-31T16:03:20.089Z,15.29
2022-12-31T16:05:46.593Z,15.19
2022-12-31T16:08:17.333Z,15.26
2022-12-31T16:10:44.235Z,15.24
2022-12-31T16:13:18.482Z,15.36
2022-12-31T16:15:48.672Z,15.43
2022-12-31T16:18:22.733Z,15.41
2022-12-31T16:20:51.844Z,15.32
2022-12-31T16:23:23.102Z,15.33
2022-12-31T16:25:50.564Z,15.29
2022-12-31T16:28:18.970Z,15.48
2022-12-31T16:30:45.624Z,15.40
2022-12-31T16:33:14.504Z,15.63
2022-12-31T16:35:41.568Z,15.61
2022-12-31T16:38:08.185Z,15.39
2022-12-31T16:40:34.798Z,15.57
2022-12-31T16:43:01.605Z,15.54
2022-12-31T16:45:35.802Z,15.65
2022-12-31T16:48:19.065Z,15.71
2022-12-31T16:50:46.322Z,15.72
2022-12-31T16:53:17.464Z,15.85
2022-12-31T16:55:52.730Z,15.80
2022-12-31T16:58:27.545Z,15.77
2022-12-31T17:00:55.823Z,15.89
2022-12-31T17:03:31.722Z,15.96
2022-12-31T17:06:12.439Z,15.99
2022-12-31T17:08:38.911Z,15.95
2022-12-31T17:11:05.741Z,15.84
2022-12-31T17:13:36.495Z,15.93
2022-12-31T17:16:03.625Z,15.90
2022-12-31T17:18:35.853Z,15.99
2022-12-31T17:21:08.429Z,15.86
2022-12-31T17:23:38.329Z,15.86
2022-12-31T17:26:07.805Z,15.97
2022-12-31T17:28:45.020Z,15.91
2022-12-31T17:31:28.543Z,16.00
2022-12-31T17:34:05.099Z,16.05
2022-12-31T17:36:31.885Z,15.97
2022-12-31T17:39:18.739Z,16.10
2022-12-31T17:41:46.447Z,16.06
2022-12-31T17:44:32.900Z,16.00
2022-12-31T17:47:03.312Z,15.91
2022-12-31T17:49:31.010Z,15.85
2022-12-31T17:51:57.910Z,16.12
2022-12-31T17:54:26.847Z,15.96
2022-12-31T17:56:53.989Z,15.83
2022-12-31T17:59:25.634Z,15.84
2022-12-31T18:01:52.309Z,16.03
2022-12-31T18:04:25.731Z,15.86
2022-12-31T18:06:56.399Z,15.98
2022-12-31T18:09:23.202Z,15.84
2022-12-31T18:11:50.080Z,15.74
2022-12-31T18:14:22.347Z,15.85
2022-12-31T18:16:48.963Z,15.81
2022-12-31T18:19:45.859Z,15.83
2022-12-31T18:22:04.961Z,15.72
2022-12-31T18:24:45.751Z,15.78
2022-12-31T18:27:18.955Z,15.75
2022-12-31T18:29:45.515Z,15.74
2022-12-31T18:32:35.071Z,15.70
2022-12-31T18:35:03.200Z,15.64
2022-12-31T18:37:33.709Z,15.66
2022-12-31T18:40:07.516Z,15.57
2022-12-31T18:42:34.327Z,15.50
2022-12-31T18:45:03.255Z,15.49
2022-12-31T18:47:35.820Z,15.51
2022-12-31T18:50:04.195Z,15.45
2022-12-31T18:52:30.644Z,15.33
2022-12-31T18:54:57.079Z,15.27
2022-12-31T18:57:23.537Z,15.08
2022-12-31T18:59:50.175Z,15.03
2022-12-31T19:02:18.882Z,14.92
2022-12-31T19:04:45.639Z,14.99
2022-12-31T19:07:12.187Z,14.95
2022-12-31T19:09:47.166Z,15.02
2022-12-31T19:12:14.730Z,14.94
2022-12-31T19:14:41.229Z,14.93
2022-12-31T19:19:33.031Z,14.68
2022-12-31T19:21:59.467Z,14.76
2022-12-31T19:24:28.370Z,14.72
2022-12-31T19:26:55.209Z,14.77
2022-12-31T19:29:21.657Z,14.72
2022-12-31T19:31:48.230Z,14.67
2022-12-31T19:34:14.702Z,14.63
2022-12-31T19:36:44.076Z,14.73
2022-12-31T19:39:14.333Z,14.70
2022-12-31T19:41:42.303Z,14.69
2022-12-31T19:44:15.949Z,14.69
2022-12-31T19:46:42.495Z,14.61
2022-12-31T19:49:12.611Z,14.68
2022-12-31T19:51:39.507Z,14.67
2022-12-31T19:54:06.068Z,14.63
2022-12-31T19:56:32.590Z,14.66
2022-12-31T19:59:03.090Z,14.63
2022-12-31T20:01:29.619Z,14.67
2022-12-31T20:03:56.551Z,14.83
2022-12-31T20:06:23.021Z,14.80
2022-12-31T20:08:49.527Z,14.98
2022-12-31T20:11:18.677Z,15.02
2022-12-31T20:13:46.054Z,14.99
2022-12-31T20:16:14.055Z,15.10
2022-12-31T20:18:41.320Z,15.09
2022-12-31T20:21:12.200Z,15.05
2022-12-31T20:23:39.362Z,15.03
2022-12-31T20:26:05.943Z,15.11
2022-12-31T20:28:32.450Z,15.02
2022-12-31T20:30:59.040Z,15.13
2022-12-31T20:33:25.664Z,15.03
2022-12-31T20:35:52.236Z,14.99
2022-12-31T20:38:18.765Z,15.03
2022-12-31T20:40:47.039Z,15.05
2022-12-31T20:43:13.865Z,15.04
2022-12-31T20:45:41.258Z,15.14
2022-12-31T20:48:07.854Z,15.28
2022-12-31T20:50:34.331Z,15.21
2022-12-31T20:53:00.890Z,15.19
2022-12-31T20:55:27.549Z,15.17
2022-12-31T20:57:54.013Z,15.09
2022-12-31T21:00:20.573Z,15.19
2022-12-31T21:02:55.512Z,15.22
2022-12-31T21:05:24.499Z,15.14
2022-12-31T21:07:51.921Z,15.24
2022-12-31T21:10:18.427Z,15.06
2022-12-31T21:12:44.980Z,15.09
2022-12-31T21:15:12.465Z,15.21
2022-12-31T21:17:39.140Z,15.04
2022-12-31T21:20:05.890Z,14.91
2022-12-31T21:22:33.858Z,15.07
2022-12-31T21:25:01.335Z,15.10
2022-12-31T21:27:28.613Z,15.15
2022-12-31T21:30:17.795Z,14.97
2022-12-31T21:32:42.041Z,15.00
2022-12-31T21:35:40.728Z,14.98
2022-12-31T21:37:57.907Z,15.20
2022-12-31T21:40:26.836Z,15.21
2022-12-31T21:42:53.276Z,15.17
2022-12-31T21:45:19.710Z,15.13
2022-12-31T21:48:04.529Z,15.16
2022-12-31T21:50:31.104Z,15.17
2022-12-31T21:52:57.592Z,15.17
2022-12-31T21:55:42.742Z,15.17
2022-12-31T21:58:26.536Z,15.06
2022-12-31T22:01:12.818Z,15.07
2022-12-31T22:03:39.501Z,15.02
2022-12-31T22:06:10.794Z,15.07
2022-12-31T22:08:37.795Z,14.94
2022-12-31T22:11:04.365Z,14.98
2022-12-31T22:13:31.203Z,15.06
2022-12-31T22:16:04.275Z,15.12
2022-12-31T22:18:34.081Z,15.06
2022-12-31T22:21:20.913Z,15.03
2022-12-31T22:23:48.431Z,14.98
2022-12-31T22:26:16.073Z,14.95
2022-12-31T22:28:43.130Z,14.96
2022-12-31T22:31:12.401Z,15.08
2022-12-31T22:33:38.980Z,15.11
2022-12-31T22:36:07.134Z,15.05
2022-12-31T22:38:34.563Z,14.92
2022-12-31T22:41:12.018Z,14.94
2022-12-31T22:43:39.947Z,15.03
2022-12-31T22:46:11.249Z,14.92
2022-12-31T22:48:38.124Z,15.00
2022-12-31T22:51:04.732Z,15.06
2022-12-31T22:53:31.173Z,14.93
2022-12-31T22:55:57.671Z,14.94
2022-12-31T22:58:24.591Z,14.91
2022-12-31T23:00:51.528Z,14.86
2022-12-31T23:03:18.100Z,14.70
2022-12-31T23:05:44.978Z,14.75
2022-12-31T23:08:20.538Z,14.75
2022-12-31T23:11:06.079Z,14.56
2022-12-31T23:13:56.214Z,14.68
2022-12-31T23:16:41.912Z,14.61
2022-12-31T23:19:26.875Z,14.65
2022-12-31T23:22:12.342Z,14.56
2022-12-31T23:24:38.913Z,14.69
2022-12-31T23:27:06.044Z,14.54
2022-12-31T23:29:32.979Z,14.63
2022-12-31T23:31:59.455Z,14.54
2022-12-31T23:34:25.905Z,14.48
2022-12-31T23:36:52.415Z,14.46
2022-12-31T23:39:18.930Z,14.64
2022-12-31T23:41:45.389Z,14.59
2022-12-31T23:44:14.834Z,14.50
2022-12-31T23:46:42.329Z,14.58
2022-12-31T23:49:08.889Z,14.57
2022-12-31T23:51:36.571Z,14.56
2022-12-31T23:54:06.176Z,14.53
2022-12-31T23:56:32.789Z,14.50
2022-12-31T23:58:59.736Z,14.70
